sensor_id;sensor_type;location;lat;lon;timestamp;P1;durP1;ratioP1;P2;durP2;ratioP2
25169;SDS011;13129;48.012;10.352;2023-03-01T04:31:18;31.20;;;20.67;;
25169;SDS011;13129;48.012;10.352;2023-03-01T04:33:47;30.63;;;20.52;;
25169;SDS011;13129;48.012;10.352;2023-03-01T04:36:16;30.30;;;20.73;;
25169;SDS011;13129;48.012;10.352;2023-03-01T04:38:44;32.63;;;21.58;;
25169;SDS011;13129;48.012;10.352;2023-03-01T04:41:13;31.88;;;21.75;;
25169;SDS011;13129;48.012;10.352;2023-03-01T04:43:41;30.50;;;21.70;;
25169;SDS011;13129;48.012;10.352;2023-03-01T04:46:08;35.08;;;22.92;;
25169;SDS011;13129;48.012;10.352;2023-03-01T04:48:37;32.55;;;23.15;;
25169;SDS011;13129;48.012;10.352;2023-03-01T04:51:04;31.35;;;22.25;;
25169;SDS011;13129;48.012;10.352;2023-03-01T04:53:30;34.38;;;21.27;;
25169;SDS011;13129;48.012;10.352;2023-03-01T04:55:57;34.60;;;22.38;;
25169;SDS011;13129;48.012;10.352;2023-03-01T04:58:23;34.28;;;22.60;;
25169;SDS011;13129;48.012;10.352;2023-03-01T05:00:50;32.83;;;22.08;;
25169;SDS011;13129;48.012;10.352;2023-03-01T05:03:15;32.03;;;21.27;;
25169;SDS011;13129;48.012;10.352;2023-03-01T05:05:45;31.98;;;21.80;;
25169;SDS011;13129;48.012;10.352;2023-03-01T05:08:12;30.77;;;21.13;;
25169;SDS011;13129;48.012;10.352;2023-03-01T05:13:09;31.38;;;21.90;;
25169;SDS011;13129;48.012;10.352;2023-03-01T05:15:34;34.78;;;21.52;;
25169;SDS011;13129;48.012;10.352;2023-03-01T05:18:01;34.17;;;22.60;;
25169;SDS011;13129;48.012;10.352;2023-03-01T05:20:29;32.75;;;22.95;;
25169;SDS011;13129;48.012;10.352;2023-03-01T05:22:56;31.65;;;21.63;;
25169;SDS011;13129;48.012;10.352;2023-03-01T05:25:24;29.88;;;22.17;;
25169;SDS011;13129;48.012;10.352;2023-03-01T05:27:50;32.00;;;21.88;;
25169;SDS011;13129;48.012;10.352;2023-03-01T05:30:16;31.00;;;21.90;;
25169;SDS011;13129;48.012;10.352;2023-03-01T05:32:43;32.55;;;21.50;;
25169;SDS011;13129;48.012;10.352;2023-03-01T05:35:14;34.20;;;22.15;;
25169;SDS011;13129;48.012;10.352;2023-03-01T05:37:42;32.45;;;22.20;;
25169;SDS011;13129;48.012;10.352;2023-03-01T05:40:10;33.35;;;21.92;;
25169;SDS011;13129;48.012;10.352;2023-03-01T05:42:42;31.52;;;21.15;;
25169;SDS011;13129;48.012;10.352;2023-03-01T05:45:09;37.08;;;23.63;;
25169;SDS011;13129;48.012;10.352;2023-03-01T05:47:35;29.58;;;21.77;;
25169;SDS011;13129;48.012;10.352;2023-03-01T05:50:01;32.63;;;21.05;;
25169;SDS011;13129;48.012;10.352;2023-03-01T05:52:27;34.05;;;22.23;;
25169;SDS011;13129;48.012;10.352;2023-03-01T05:54:53;30.92;;;21.27;;
25169;SDS011;13129;48.012;10.352;2023-03-01T05:57:18;31.92;;;21.17;;
25169;SDS011;13129;48.012;10.352;2023-03-01T05:59:45;34.47;;;21.45;;
25169;SDS011;13129;48.012;10.352;2023-03-01T06:02:11;33.10;;;20.80;;
25169;SDS011;13129;48.012;10.352;2023-03-01T06:04:36;30.42;;;21.70;;
25169;SDS011;13129;48.012;10.352;2023-03-01T06:07:02;34.40;;;21.80;;
25169;SDS011;13129;48.012;10.352;2023-03-01T06:09:27;31.40;;;21.60;;
25169;SDS011;13129;48.012;10.352;2023-03-01T06:11:53;31.80;;;22.23;;
25169;SDS011;13129;48.012;10.352;2023-03-01T06:14:19;29.75;;;20.83;;
25169;SDS011;13129;48.012;10.352;2023-03-01T06:16:45;35.05;;;22.88;;
25169;SDS011;13129;48.012;10.352;2023-03-01T06:19:11;36.05;;;22.55;;
25169;SDS011;13129;48.012;10.352;2023-03-01T06:21:37;32.35;;;21.50;;
25169;SDS011;13129;48.012;10.352;2023-03-01T06:24:03;30.30;;;21.48;;
25169;SDS011;13129;48.012;10.352;2023-03-01T06:26:30;32.03;;;21.77;;
25169;SDS011;13129;48.012;10.352;2023-03-01T06:28:56;35.25;;;22.08;;
25169;SDS011;13129;48.012;10.352;2023-03-01T06:31:22;32.42;;;21.95;;
25169;SDS011;13129;48.012;10.352;2023-03-01T09:09:29;30.33;;;21.23;;
25169;SDS011;13129;48.012;10.352;2023-03-01T09:11:54;31.48;;;21.08;;
25169;SDS011;13129;48.012;10.352;2023-03-01T09:14:20;30.88;;;21.25;;
25169;SDS011;13129;48.012;10.352;2023-03-01T09:16:45;31.13;;;20.85;;
25169;SDS011;13129;48.012;10.352;2023-03-01T09:19:11;30.83;;;21.10;;
25169;SDS011;13129;48.012;10.352;2023-03-01T09:21:37;30.77;;;22.48;;
25169;SDS011;13129;48.012;10.352;2023-03-01T09:24:03;38.20;;;23.60;;
25169;SDS011;13129;48.012;10.352;2023-03-01T09:26:29;30.75;;;21.55;;
25169;SDS011;13129;48.012;10.352;2023-03-01T09:28:55;29.90;;;21.13;;
25169;SDS011;13129;48.012;10.352;2023-03-01T09:31:22;33.25;;;22.67;;
25169;SDS011;13129;48.012;10.352;2023-03-01T09:33:50;32.08;;;22.10;;
25169;SDS011;13129;48.012;10.352;2023-03-01T09:36:21;29.27;;;20.23;;
25169;SDS011;13129;48.012;10.352;2023-03-01T09:38:49;30.38;;;21.67;;
25169;SDS011;13129;48.012;10.352;2023-03-01T09:43:53;29.70;;;20.17;;
25169;SDS011;13129;48.012;10.352;2023-03-01T09:46:24;28.63;;;20.90;;
25169;SDS011;13129;48.012;10.352;2023-03-01T09:48:56;31.88;;;21.05;;
25169;SDS011;13129;48.012;10.352;2023-03-01T09:51:27;31.58;;;21.88;;
25169;SDS011;13129;48.012;10.352;2023-03-01T09:54:00;34.08;;;22.52;;
25169;SDS011;13129;48.012;10.352;2023-03-01T09:56:36;29.67;;;21.00;;
25169;SDS011;13129;48.012;10.352;2023-03-01T10:01:41;30.02;;;20.77;;
25169;SDS011;13129;48.012;10.352;2023-03-01T10:06:48;34.67;;;21.90;;
25169;SDS011;13129;48.012;10.352;2023-03-01T10:09:25;32.92;;;22.98;;
25169;SDS011;13129;48.012;10.352;2023-03-01T10:11:54;29.67;;;21.17;;
25169;SDS011;13129;48.012;10.352;2023-03-01T10:16:54;33.88;;;21.98;;
25169;SDS011;13129;48.012;10.352;2023-03-01T10:24:41;30.65;;;21.30;;
25169;SDS011;13129;48.012;10.352;2023-03-01T10:32:42;30.77;;;21.98;;
25169;SDS011;13129;48.012;10.352;2023-03-01T10:35:20;29.83;;;21.58;;
25169;SDS011;13129;48.012;10.352;2023-03-01T10:37:56;31.75;;;22.33;;
25169;SDS011;13129;48.012;10.352;2023-03-01T10:40:30;31.65;;;22.55;;
25169;SDS011;13129;48.012;10.352;2023-03-01T10:42:57;30.48;;;21.52;;
25169;SDS011;13129;48.012;10.352;2023-03-01T10:50:44;30.67;;;21.63;;
25169;SDS011;13129;48.012;10.352;2023-03-01T10:53:22;28.73;;;20.83;;
25169;SDS011;13129;48.012;10.352;2023-03-01T10:58:34;35.28;;;23.15;;
25169;SDS011;13129;48.012;10.352;2023-03-01T11:01:05;32.35;;;21.83;;
25169;SDS011;13129;48.012;10.352;2023-03-01T11:06:02;33.60;;;23.45;;
25169;SDS011;13129;48.012;10.352;2023-03-01T11:08:33;35.35;;;22.77;;
25169;SDS011;13129;48.012;10.352;2023-03-01T11:11:04;30.75;;;22.10;;
25169;SDS011;13129;48.012;10.352;2023-03-01T11:16:24;34.00;;;23.23;;
25169;SDS011;13129;48.012;10.352;2023-03-01T11:21:38;31.92;;;21.48;;
25169;SDS011;13129;48.012;10.352;2023-03-01T11:24:16;34.05;;;21.80;;
25169;SDS011;13129;48.012;10.352;2023-03-01T11:26:47;32.38;;;22.63;;
25169;SDS011;13129;48.012;10.352;2023-03-01T11:29:20;32.58;;;21.77;;
25169;SDS011;13129;48.012;10.352;2023-03-01T11:32:07;33.38;;;23.13;;
25169;SDS011;13129;48.012;10.352;2023-03-01T11:34:40;34.10;;;22.13;;
25169;SDS011;13129;48.012;10.352;2023-03-01T11:45:11;28.60;;;21.08;;
25169;SDS011;13129;48.012;10.352;2023-03-01T11:47:54;35.90;;;23.10;;
25169;SDS011;13129;48.012;10.352;2023-03-01T11:50:46;36.35;;;24.98;;
25169;SDS011;13129;48.012;10.352;2023-03-01T12:02:22;30.67;;;22.27;;
25169;SDS011;13129;48.012;10.352;2023-03-01T12:07:51;33.63;;;23.80;;
25169;SDS011;13129;48.012;10.352;2023-03-01T12:10:28;34.60;;;23.25;;
25169;SDS011;13129;48.012;10.352;2023-03-01T12:18:36;33.20;;;24.23;;
25169;SDS011;13129;48.012;10.352;2023-03-01T12:21:17;29.38;;;22.00;;
25169;SDS011;13129;48.012;10.352;2023-03-01T12:24:09;35.67;;;22.70;;
25169;SDS011;13129;48.012;10.352;2023-03-01T12:29:51;34.67;;;23.15;;
25169;SDS011;13129;48.012;10.352;2023-03-01T12:35:09;35.03;;;23.08;;
25169;SDS011;13129;48.012;10.352;2023-03-01T12:37:42;35.20;;;23.70;;
25169;SDS011;13129;48.012;10.352;2023-03-01T12:48:34;31.40;;;21.58;;
25169;SDS011;13129;48.012;10.352;2023-03-01T12:51:13;34.22;;;23.23;;
25169;SDS011;13129;48.012;10.352;2023-03-01T12:53:42;34.40;;;22.73;;
25169;SDS011;13129;48.012;10.352;2023-03-01T12:56:14;31.75;;;21.13;;
25169;SDS011;13129;48.012;10.352;2023-03-01T13:01:57;33.83;;;24.73;;
25169;SDS011;13129;48.012;10.352;2023-03-01T13:07:25;34.72;;;23.58;;
25169;SDS011;13129;48.012;10.352;2023-03-01T13:15:30;34.33;;;23.73;;
25169;SDS011;13129;48.012;10.352;2023-03-01T13:18:02;37.63;;;24.33;;
25169;SDS011;13129;48.012;10.352;2023-03-01T13:31:07;33.45;;;23.15;;
25169;SDS011;13129;48.012;10.352;2023-03-01T13:33:39;38.38;;;24.60;;
25169;SDS011;13129;48.012;10.352;2023-03-01T13:36:06;34.17;;;22.35;;
25169;SDS011;13129;48.012;10.352;2023-03-01T13:41:48;35.13;;;22.75;;
25169;SDS011;13129;48.012;10.352;2023-03-01T13:49:11;34.97;;;22.75;;
25169;SDS011;13129;48.012;10.352;2023-03-01T13:54:09;37.83;;;22.52;;
25169;SDS011;13129;48.012;10.352;2023-03-01T13:59:04;34.80;;;22.27;;
25169;SDS011;13129;48.012;10.352;2023-03-01T14:01:37;35.50;;;22.42;;
25169;SDS011;13129;48.012;10.352;2023-03-01T14:04:03;34.03;;;22.38;;
25169;SDS011;13129;48.012;10.352;2023-03-01T14:06:45;30.77;;;21.58;;
25169;SDS011;13129;48.012;10.352;2023-03-01T14:09:18;31.33;;;21.55;;
25169;SDS011;13129;48.012;10.352;2023-03-01T14:14:39;33.20;;;22.60;;
25169;SDS011;13129;48.012;10.352;2023-03-01T14:17:17;34.55;;;23.52;;
25169;SDS011;13129;48.012;10.352;2023-03-01T14:19:45;30.75;;;21.58;;
25169;SDS011;13129;48.012;10.352;2023-03-01T14:27:27;35.42;;;24.17;;
25169;SDS011;13129;48.012;10.352;2023-03-01T14:32:37;30.17;;;21.17;;
25169;SDS011;13129;48.012;10.352;2023-03-01T14:35:18;31.13;;;22.75;;
25169;SDS011;13129;48.012;10.352;2023-03-01T14:37:53;34.75;;;22.58;;
25169;SDS011;13129;48.012;10.352;2023-03-01T14:40:52;34.47;;;24.30;;
25169;SDS011;13129;48.012;10.352;2023-03-01T14:43:11;34.25;;;22.35;;
25169;SDS011;13129;48.012;10.352;2023-03-01T14:45:46;34.33;;;23.52;;
25169;SDS011;13129;48.012;10.352;2023-03-01T14:48:14;32.95;;;23.58;;
25169;SDS011;13129;48.012;10.352;2023-03-01T14:50:41;32.88;;;24.45;;
25169;SDS011;13129;48.012;10.352;2023-03-01T14:53:15;33.08;;;23.25;;
25169;SDS011;13129;48.012;10.352;2023-03-01T14:55:56;34.70;;;23.08;;
25169;SDS011;13129;48.012;10.352;2023-03-01T14:58:27;29.02;;;21.60;;
25169;SDS011;13129;48.012;10.352;2023-03-01T15:00:57;31.17;;;22.85;;
25169;SDS011;13129;48.012;10.352;2023-03-01T15:06:22;35.10;;;23.90;;
25169;SDS011;13129;48.012;10.352;2023-03-01T15:08:49;34.53;;;24.15;;
25169;SDS011;13129;48.012;10.352;2023-03-01T15:13:49;33.65;;;22.83;;
25169;SDS011;13129;48.012;10.352;2023-03-01T15:16:20;33.83;;;23.20;;
25169;SDS011;13129;48.012;10.352;2023-03-01T15:18:58;35.45;;;23.80;;
25169;SDS011;13129;48.012;10.352;2023-03-01T15:21:30;32.50;;;23.65;;
25169;SDS011;13129;48.012;10.352;2023-03-01T15:26:40;32.72;;;23.98;;
25169;SDS011;13129;48.012;10.352;2023-03-01T15:29:18;32.88;;;23.58;;
25169;SDS011;13129;48.012;10.352;2023-03-01T15:34:32;39.08;;;24.15;;
25169;SDS011;13129;48.012;10.352;2023-03-01T15:37:02;31.52;;;22.85;;
25169;SDS011;13129;48.012;10.352;2023-03-01T15:39:32;32.97;;;22.55;;
25169;SDS011;13129;48.012;10.352;2023-03-01T15:42:02;32.90;;;23.23;;
25169;SDS011;13129;48.012;10.352;2023-03-01T15:44:34;34.63;;;23.13;;
25169;SDS011;13129;48.012;10.352;2023-03-01T15:47:00;32.47;;;22.63;;
25169;SDS011;13129;48.012;10.352;2023-03-01T15:49:37;36.97;;;25.42;;
25169;SDS011;13129;48.012;10.352;2023-03-01T15:52:06;33.80;;;24.77;;
25169;SDS011;13129;48.012;10.352;2023-03-01T15:54:44;40.03;;;25.55;;
25169;SDS011;13129;48.012;10.352;2023-03-01T15:57:14;33.40;;;24.08;;
25169;SDS011;13129;48.012;10.352;2023-03-01T15:59:42;34.97;;;22.90;;
25169;SDS011;13129;48.012;10.352;2023-03-01T16:02:09;38.97;;;24.90;;
25169;SDS011;13129;48.012;10.352;2023-03-01T16:04:37;34.70;;;25.08;;
25169;SDS011;13129;48.012;10.352;2023-03-01T16:07:03;37.28;;;25.73;;
25169;SDS011;13129;48.012;10.352;2023-03-01T16:09:29;38.50;;;25.20;;
25169;SDS011;13129;48.012;10.352;2023-03-01T16:11:55;35.35;;;25.88;;
25169;SDS011;13129;48.012;10.352;2023-03-01T16:14:20;43.67;;;28.38;;
25169;SDS011;13129;48.012;10.352;2023-03-01T16:16:46;41.05;;;26.27;;
25169;SDS011;13129;48.012;10.352;2023-03-01T16:19:15;38.53;;;27.48;;
25169;SDS011;13129;48.012;10.352;2023-03-01T18:09:45;41.20;;;28.08;;
25169;SDS011;13129;48.012;10.352;2023-03-01T18:13:16;38.78;;;24.58;;
25169;SDS011;13129;48.012;10.352;2023-03-01T18:15:42;42.20;;;28.02;;
25169;SDS011;13129;48.012;10.352;2023-03-01T18:18:07;44.03;;;27.75;;
25169;SDS011;13129;48.012;10.352;2023-03-01T18:20:33;47.78;;;30.33;;
25169;SDS011;13129;48.012;10.352;2023-03-01T18:22:58;44.13;;;30.63;;
25169;SDS011;13129;48.012;10.352;2023-03-01T18:25:24;44.25;;;30.83;;
25169;SDS011;13129;48.012;10.352;2023-03-01T18:27:49;45.17;;;30.67;;
25169;SDS011;13129;48.012;10.352;2023-03-01T18:30:15;58.53;;;37.72;;
25169;SDS011;13129;48.012;10.352;2023-03-01T18:32:41;70.88;;;49.70;;
25169;SDS011;13129;48.012;10.352;2023-03-01T18:35:08;61.33;;;42.17;;
25169;SDS011;13129;48.012;10.352;2023-03-01T18:37:34;60.72;;;38.35;;
25169;SDS011;13129;48.012;10.352;2023-03-01T18:40:00;54.35;;;39.35;;
25169;SDS011;13129;48.012;10.352;2023-03-01T18:42:26;57.20;;;38.78;;
25169;SDS011;13129;48.012;10.352;2023-03-01T18:44:51;58.42;;;39.17;;
25169;SDS011;13129;48.012;10.352;2023-03-01T18:47:17;41.92;;;27.90;;
25169;SDS011;13129;48.012;10.352;2023-03-01T18:49:43;38.88;;;26.33;;
25169;SDS011;13129;48.012;10.352;2023-03-01T18:52:09;37.13;;;25.80;;
25169;SDS011;13129;48.012;10.352;2023-03-01T18:54:35;40.63;;;25.70;;
25169;SDS011;13129;48.012;10.352;2023-03-01T18:57:00;37.38;;;24.50;;
25169;SDS011;13129;48.012;10.352;2023-03-01T18:59:26;38.90;;;25.33;;
25169;SDS011;13129;48.012;10.352;2023-03-01T19:01:53;43.95;;;26.75;;
25169;SDS011;13129;48.012;10.352;2023-03-01T19:04:18;40.05;;;25.35;;
25169;SDS011;13129;48.012;10.352;2023-03-01T19:06:44;39.75;;;25.30;;
25169;SDS011;13129;48.012;10.352;2023-03-01T19:09:10;39.08;;;24.98;;
25169;SDS011;13129;48.012;10.352;2023-03-01T19:11:35;36.95;;;24.70;;
25169;SDS011;13129;48.012;10.352;2023-03-01T19:14:02;37.67;;;24.08;;
25169;SDS011;13129;48.012;10.352;2023-03-01T19:16:29;37.40;;;25.95;;
25169;SDS011;13129;48.012;10.352;2023-03-01T19:18:57;36.75;;;24.67;;
25169;SDS011;13129;48.012;10.352;2023-03-01T19:21:25;38.58;;;24.45;;
25169;SDS011;13129;48.012;10.352;2023-03-01T19:23:52;46.53;;;26.48;;
25169;SDS011;13129;48.012;10.352;2023-03-01T19:26:20;38.72;;;24.50;;
25169;SDS011;13129;48.012;10.352;2023-03-01T19:28:47;52.03;;;30.60;;
25169;SDS011;13129;48.012;10.352;2023-03-01T19:31:14;54.60;;;31.85;;
25169;SDS011;13129;48.012;10.352;2023-03-01T19:33:41;45.85;;;28.52;;
25169;SDS011;13129;48.012;10.352;2023-03-01T19:36:07;53.03;;;30.63;;
25169;SDS011;13129;48.012;10.352;2023-03-01T19:38:34;58.85;;;33.00;;
25169;SDS011;13129;48.012;10.352;2023-03-01T19:41:05;48.03;;;29.25;;
25169;SDS011;13129;48.012;10.352;2023-03-01T19:43:32;46.35;;;28.35;;
25169;SDS011;13129;48.012;10.352;2023-03-01T19:45:57;50.88;;;30.52;;
25169;SDS011;13129;48.012;10.352;2023-03-01T19:48:23;58.05;;;38.78;;
25169;SDS011;13129;48.012;10.352;2023-03-01T19:50:50;53.25;;;34.75;;
25169;SDS011;13129;48.012;10.352;2023-03-01T19:53:16;52.25;;;33.50;;
25169;SDS011;13129;48.012;10.352;2023-03-01T19:55:42;50.83;;;33.47;;
25169;SDS011;13129;48.012;10.352;2023-03-01T19:58:08;53.10;;;33.28;;
25169;SDS011;13129;48.012;10.352;2023-03-01T20:00:35;51.33;;;32.67;;
25169;SDS011;13129;48.012;10.352;2023-03-01T20:03:02;42.25;;;26.30;;
25169;SDS011;13129;48.012;10.352;2023-03-01T20:05:31;41.08;;;24.17;;
25169;SDS011;13129;48.012;10.352;2023-03-01T20:07:58;34.63;;;22.85;;
25169;SDS011;13129;48.012;10.352;2023-03-01T20:10:25;37.70;;;23.95;;
25169;SDS011;13129;48.012;10.352;2023-03-01T20:12:52;37.50;;;24.17;;
25169;SDS011;13129;48.012;10.352;2023-03-01T20:15:19;35.58;;;23.20;;
25169;SDS011;13129;48.012;10.352;2023-03-01T20:17:45;38.13;;;23.95;;
25169;SDS011;13129;48.012;10.352;2023-03-01T20:20:11;38.35;;;24.60;;
25169;SDS011;13129;48.012;10.352;2023-03-01T20:22:37;36.97;;;23.45;;
25169;SDS011;13129;48.012;10.352;2023-03-01T20:25:03;38.33;;;23.40;;
25169;SDS011;13129;48.012;10.352;2023-03-01T20:27:29;40.63;;;25.15;;
25169;SDS011;13129;48.012;10.352;2023-03-01T20:29:55;40.72;;;25.80;;
25169;SDS011;13129;48.012;10.352;2023-03-01T20:32:21;41.92;;;26.48;;
25169;SDS011;13129;48.012;10.352;2023-03-01T20:34:47;40.22;;;24.23;;
25169;SDS011;13129;48.012;10.352;2023-03-01T20:37:13;43.38;;;26.25;;
25169;SDS011;13129;48.012;10.352;2023-03-01T20:39:38;45.47;;;27.08;;
25169;SDS011;13129;48.012;10.352;2023-03-01T20:42:04;48.20;;;27.90;;
25169;SDS011;13129;48.012;10.352;2023-03-01T20:44:31;41.80;;;26.17;;
25169;SDS011;13129;48.012;10.352;2023-03-01T20:46:58;37.17;;;24.08;;
25169;SDS011;13129;48.012;10.352;2023-03-01T20:49:23;41.75;;;24.75;;
25169;SDS011;13129;48.012;10.352;2023-03-01T20:51:49;41.92;;;25.38;;
25169;SDS011;13129;48.012;10.352;2023-03-01T20:54:14;42.92;;;25.75;;
25169;SDS011;13129;48.012;10.352;2023-03-01T20:56:40;35.72;;;23.75;;
25169;SDS011;13129;48.012;10.352;2023-03-01T20:59:07;40.22;;;26.40;;
25169;SDS011;13129;48.012;10.352;2023-03-01T21:01:36;44.33;;;26.90;;
25169;SDS011;13129;48.012;10.352;2023-03-01T21:04:03;38.92;;;25.15;;
25169;SDS011;13129;48.012;10.352;2023-03-01T21:06:30;49.38;;;27.85;;
25169;SDS011;13129;48.012;10.352;2023-03-01T21:08:56;41.25;;;25.58;;
25169;SDS011;13129;48.012;10.352;2023-03-01T21:11:22;44.97;;;27.10;;
25169;SDS011;13129;48.012;10.352;2023-03-01T21:13:49;45.92;;;28.05;;
25169;SDS011;13129;48.012;10.352;2023-03-01T21:16:16;45.08;;;27.98;;
25169;SDS011;13129;48.012;10.352;2023-03-01T21:18:43;46.17;;;27.95;;
25169;SDS011;13129;48.012;10.352;2023-03-01T21:21:10;46.90;;;27.27;;
25169;SDS011;13129;48.012;10.352;2023-03-01T21:23:38;44.15;;;27.88;;
25169;SDS011;13129;48.012;10.352;2023-03-01T21:28:36;48.03;;;29.02;;
25169;SDS011;13129;48.012;10.352;2023-03-01T21:31:03;47.58;;;27.98;;
25169;SDS011;13129;48.012;10.352;2023-03-01T21:33:34;51.53;;;28.95;;
25169;SDS011;13129;48.012;10.352;2023-03-01T21:36:02;48.90;;;30.33;;
25169;SDS011;13129;48.012;10.352;2023-03-01T21:38:30;52.33;;;31.00;;
25169;SDS011;13129;48.012;10.352;2023-03-01T21:41:01;48.92;;;29.90;;
25169;SDS011;13129;48.012;10.352;2023-03-01T21:43:32;52.22;;;31.92;;
25169;SDS011;13129;48.012;10.352;2023-03-01T21:46:02;53.20;;;32.35;;
25169;SDS011;13129;48.012;10.352;2023-03-01T21:50:55;51.40;;;32.17;;
25169;SDS011;13129;48.012;10.352;2023-03-01T21:53:25;52.72;;;33.10;;
25169;SDS011;13129;48.012;10.352;2023-03-01T21:55:53;55.13;;;32.72;;
25169;SDS011;13129;48.012;10.352;2023-03-01T21:58:19;60.08;;;35.08;;
25169;SDS011;13129;48.012;10.352;2023-03-01T22:00:45;48.78;;;31.63;;
25169;SDS011;13129;48.012;10.352;2023-03-01T22:03:10;47.92;;;31.60;;
25169;SDS011;13129;48.012;10.352;2023-03-01T22:05:36;50.97;;;31.50;;
25169;SDS011;13129;48.012;10.352;2023-03-01T22:08:02;55.25;;;34.63;;
25169;SDS011;13129;48.012;10.352;2023-03-01T22:10:29;60.78;;;35.03;;
25169;SDS011;13129;48.012;10.352;2023-03-01T22:12:56;55.72;;;35.72;;
25169;SDS011;13129;48.012;10.352;2023-03-01T22:15:23;61.03;;;35.97;;
25169;SDS011;13129;48.012;10.352;2023-03-01T22:17:50;57.97;;;34.05;;
25169;SDS011;13129;48.012;10.352;2023-03-01T22:20:15;61.40;;;37.10;;
25169;SDS011;13129;48.012;10.352;2023-03-01T22:22:41;58.15;;;34.53;;
25169;SDS011;13129;48.012;10.352;2023-03-01T22:25:07;55.13;;;35.33;;
25169;SDS011;13129;48.012;10.352;2023-03-01T22:27:35;62.70;;;37.03;;
25169;SDS011;13129;48.012;10.352;2023-03-01T22:30:10;56.80;;;34.40;;
25169;SDS011;13129;48.012;10.352;2023-03-01T22:32:36;58.55;;;35.28;;
25169;SDS011;13129;48.012;10.352;2023-03-01T22:35:02;57.53;;;34.33;;
25169;SDS011;13129;48.012;10.352;2023-03-01T22:37:28;52.53;;;32.97;;
25169;SDS011;13129;48.012;10.352;2023-03-01T22:39:53;51.17;;;33.85;;
25169;SDS011;13129;48.012;10.352;2023-03-01T22:42:21;52.17;;;32.40;;
25169;SDS011;13129;48.012;10.352;2023-03-01T22:44:46;55.15;;;34.90;;
25169;SDS011;13129;48.012;10.352;2023-03-01T22:47:12;54.03;;;34.05;;
25169;SDS011;13129;48.012;10.352;2023-03-01T22:49:37;52.38;;;32.80;;
25169;SDS011;13129;48.012;10.352;2023-03-01T22:52:03;47.67;;;31.38;;
25169;SDS011;13129;48.012;10.352;2023-03-01T22:54:29;47.08;;;32.13;;
25169;SDS011;13129;48.012;10.352;2023-03-01T22:56:55;48.88;;;30.75;;
25169;SDS011;13129;48.012;10.352;2023-03-01T22:59:21;50.47;;;31.77;;
25169;SDS011;13129;48.012;10.352;2023-03-01T23:01:47;48.35;;;30.60;;
25169;SDS011;13129;48.012;10.352;2023-03-01T23:04:13;51.63;;;32.47;;
25169;SDS011;13129;48.012;10.352;2023-03-01T23:06:41;52.78;;;32.22;;
25169;SDS011;13129;48.012;10.352;2023-03-01T23:09:19;50.58;;;31.63;;
25169;SDS011;13129;48.012;10.352;2023-03-01T23:11:52;54.40;;;33.95;;
25169;SDS011;13129;48.012;10.352;2023-03-01T23:14:19;48.80;;;29.83;;
25169;SDS011;13129;48.012;10.352;2023-03-01T23:16:45;46.75;;;30.13;;
25169;SDS011;13129;48.012;10.352;2023-03-01T23:19:11;48.75;;;30.10;;
25169;SDS011;13129;48.012;10.352;2023-03-01T23:21:37;49.55;;;28.88;;
25169;SDS011;13129;48.012;10.352;2023-03-01T23:26:33;46.08;;;27.75;;
25169;SDS011;13129;48.012;10.352;2023-03-01T23:28:59;48.92;;;28.25;;
25169;SDS011;13129;48.012;10.352;2023-03-01T23:31:25;44.20;;;28.85;;
25169;SDS011;13129;48.012;10.352;2023-03-01T23:33:54;48.35;;;31.40;;
25169;SDS011;13129;48.012;10.352;2023-03-01T23:36:38;45.72;;;29.75;;
25169;SDS011;13129;48.012;10.352;2023-03-01T23:39:09;47.55;;;28.25;;
25169;SDS011;13129;48.012;10.352;2023-03-01T23:41:36;43.80;;;28.35;;
25169;SDS011;13129;48.012;10.352;2023-03-01T23:44:02;47.40;;;28.90;;
25169;SDS011;13129;48.012;10.352;2023-03-01T23:46:29;45.00;;;28.63;;
25169;SDS011;13129;48.012;10.352;2023-03-01T23:48:57;46.45;;;28.73;;
25169;SDS011;13129;48.012;10.352;2023-03-01T23:51:23;44.17;;;28.52;;
25169;SDS011;13129;48.012;10.352;2023-03-01T23:53:49;49.95;;;30.58;;
25169;SDS011;13129;48.012;10.352;2023-03-01T23:56:26;47.72;;;29.50;;
25169;SDS011;13129;48.012;10.352;2023-03-01T23:58:54;45.10;;;28.90;;
